Time;durP1;ratioP1;P1;durP2;ratioP2;P2;SDS_P1;SDS_P2;PMS_P1;PMS_P2;Temp;Humidity;BMP_temperature;BMP_pressure;BME280_temperature;BME280_humidity;BME280_pressure;Samples;Min_cycle;Max_cycle;Signal;HPM_P1;HPM_P2
2021/12/28 00:00:22;;;;;;;;;;;-5.20;99.90;;;;;;5070477;28;20353;-69
2021/12/28 00:02:49;;;;;;;;;;;-5.20;99.90;;;;;;5051184;28;19909;-69
2021/12/28 00:05:15;;;;;;;;;;;-5.30;99.90;;;;;;5058406;28;19931;-72
2021/12/28 00:07:41;;;;;;;;;;;-5.20;99.90;;;;;;5033168;28;20331;-68
2021/12/28 00:10:08;;;;;;;;;;;-5.20;99.90;;;;;;5069002;28;20015;-69
2021/12/28 00:12:36;;;;;;;;;;;-5.20;99.90;;;;;;5070755;28;19904;-69
2021/12/28 00:15:17;;;;;;;;;;;-5.30;99.90;;;;;;5060948;28;20046;-70
2021/12/28 00:20:28;;;;;;;;;;;-5.20;99.90;;;;;;5050749;28;20016;-69
2021/12/28 00:22:53;;;;;;;;;;;-5.20;99.90;;;;;;5050629;28;19911;-70
2021/12/28 00:25:19;;;;;;;;;;;-5.00;99.90;;;;;;5067779;28;19912;-69
2021/12/28 00:27:44;;;;;;;;;;;-5.10;99.90;;;;;;5070955;28;19930;-68
2021/12/28 00:30:10;;;;;;;;;;;-5.10;99.90;;;;;;5070130;28;20304;-69
2021/12/28 00:32:36;;;;;;;;;;;-5.10;99.90;;;;;;5070480;28;20284;-69
2021/12/28 00:35:02;;;;;;;;;;;-5.00;99.90;;;;;;5050593;28;20552;-70
2021/12/28 00:37:28;;;;;;;;;;;-5.00;99.90;;;;;;5070772;28;19995;-69
2021/12/28 00:39:53;;;;;;;;;;;-5.00;99.90;;;;;;5070461;28;20050;-70
2021/12/28 00:42:19;;;;;;;;;;;-5.10;99.90;;;;;;5070751;28;20287;-69
2021/12/28 00:44:45;;;;;;;;;;;-5.00;99.90;;;;;;5061615;28;20263;-70
2021/12/28 00:47:10;;;;;;;;;;;-5.10;99.90;;;;;;5057422;28;20018;-69
2021/12/28 00:49:36;;;;;;;;;;;-5.10;99.90;;;;;;5071540;28;19923;-69
2021/12/28 00:52:01;;;;;;;;;;;-5.10;99.90;;;;;;5077087;28;19934;-69
2021/12/28 00:54:27;;;;;;;;;;;-5.20;99.90;;;;;;5068899;28;19966;-70
2021/12/28 00:56:52;;;;;;;;;;;-5.10;99.90;;;;;;5075155;28;19908;-69
2021/12/28 00:59:18;;;;;;;;;;;-5.20;99.90;;;;;;5076562;28;19985;-69
2021/12/28 01:01:44;;;;;;;;;;;-5.20;99.90;;;;;;5077734;28;19904;-70
2021/12/28 01:04:09;;;;;;;;;;;-5.30;99.90;;;;;;5058016;28;20303;-68
2021/12/28 01:06:35;;;;;;;;;;;-5.30;99.90;;;;;;5075677;28;20018;-69
2021/12/28 01:09:01;;;;;;;;;;;-5.20;99.90;;;;;;5076652;28;20344;-70
2021/12/28 01:11:26;;;;;;;;;;;-5.20;99.90;;;;;;5077244;28;20026;-69
2021/12/28 01:13:52;;;;;;;;;;;-5.20;99.90;;;;;;5068711;28;20265;-68
2021/12/28 01:16:18;;;;;;;;;;;-5.20;99.90;;;;;;5047101;28;19917;-68
2021/12/28 01:18:44;;;;;;;;;;;-5.20;99.90;;;;;;5046146;28;20304;-69
2021/12/28 01:21:10;;;;;;;;;;;-5.20;99.90;;;;;;5076698;28;19959;-69
2021/12/28 01:23:35;;;;;;;;;;;-5.20;99.90;;;;;;5058349;28;19908;-69
2021/12/28 01:26:01;;;;;;;;;;;-5.20;99.90;;;;;;5056863;28;20287;-69
2021/12/28 01:28:27;;;;;;;;;;;-5.10;99.90;;;;;;5076585;28;19912;-69
2021/12/28 01:30:52;;;;;;;;;;;-5.10;99.90;;;;;;5076722;28;19912;-70
2021/12/28 01:33:18;;;;;;;;;;;-5.10;99.90;;;;;;5075190;28;19939;-69
2021/12/28 01:35:44;;;;;;;;;;;-5.20;99.90;;;;;;5073939;28;19948;-69
2021/12/28 01:38:10;;;;;;;;;;;-5.20;99.90;;;;;;5076582;28;19916;-69
2021/12/28 01:40:37;;;;;;;;;;;-5.20;99.90;;;;;;5076362;28;19912;-69
2021/12/28 01:43:03;;;;;;;;;;;-5.20;99.90;;;;;;5074690;28;20283;-69
2021/12/28 01:45:29;;;;;;;;;;;-5.20;99.90;;;;;;5055853;28;19996;-70
2021/12/28 01:47:55;;;;;;;;;;;-5.20;99.90;;;;;;5076744;28;20348;-70
2021/12/28 01:50:20;;;;;;;;;;;-5.20;99.90;;;;;;5076406;28;19919;-69
2021/12/28 01:52:46;;;;;;;;;;;-5.20;99.90;;;;;;5058890;28;19904;-69
2021/12/28 01:55:12;;;;;;;;;;;-5.20;99.90;;;;;;5074396;28;19913;-68
2021/12/28 01:57:37;;;;;;;;;;;-5.20;99.90;;;;;;5071456;28;19909;-68
2021/12/28 02:00:04;;;;;;;;;;;-5.20;99.90;;;;;;5055116;28;19919;-68
2021/12/28 02:02:29;;;;;;;;;;;-5.20;99.90;;;;;;5073638;28;20323;-68
2021/12/28 02:04:55;;;;;;;;;;;-5.10;99.90;;;;;;5069694;28;20019;-68
2021/12/28 02:07:20;;;;;;;;;;;-5.20;99.90;;;;;;5065408;28;19908;-68
2021/12/28 02:09:46;;;;;;;;;;;-5.20;99.90;;;;;;5073061;28;19967;-68
2021/12/28 02:12:11;;;;;;;;;;;-5.20;99.90;;;;;;5073281;28;20409;-69
2021/12/28 02:14:43;;;;;;;;;;;-5.10;99.90;;;;;;5073024;28;19913;-70
2021/12/28 02:17:09;;;;;;;;;;;-5.10;99.90;;;;;;5053848;28;19934;-70
2021/12/28 02:19:35;;;;;;;;;;;-5.10;99.90;;;;;;5072698;28;19916;-71
2021/12/28 02:22:00;;;;;;;;;;;-5.10;99.90;;;;;;5073200;28;19904;-70
2021/12/28 02:24:26;;;;;;;;;;;-5.10;99.90;;;;;;5072909;28;20058;-69
2021/12/28 02:26:51;;;;;;;;;;;-5.10;99.90;;;;;;5053305;28;19908;-69
2021/12/28 02:29:17;;;;;;;;;;;-5.10;99.90;;;;;;5072668;28;20275;-70
2021/12/28 02:31:42;;;;;;;;;;;-4.90;99.90;;;;;;5072957;28;19916;-69
2021/12/28 02:34:08;;;;;;;;;;;-5.10;99.90;;;;;;5072697;28;20673;-69
2021/12/28 02:36:34;;;;;;;;;;;-5.10;99.90;;;;;;5070161;28;20002;-68
2021/12/28 02:38:59;;;;;;;;;;;-5.10;99.90;;;;;;5053711;28;19919;-70
2021/12/28 02:41:25;;;;;;;;;;;-5.20;99.90;;;;;;5072420;28;19920;-69
2021/12/28 02:43:57;;;;;;;;;;;-5.20;99.90;;;;;;5072527;28;19912;-68
2021/12/28 02:46:23;;;;;;;;;;;-5.20;99.90;;;;;;5061856;28;19915;-69
2021/12/28 02:48:49;;;;;;;;;;;-5.10;99.90;;;;;;5071963;28;20002;-69
2021/12/28 02:51:16;;;;;;;;;;;-5.10;99.90;;;;;;5071870;28;19908;-69
2021/12/28 02:53:44;;;;;;;;;;;-5.20;99.90;;;;;;5072300;28;20360;-68
2021/12/28 02:56:10;;;;;;;;;;;-5.10;99.90;;;;;;5050076;28;19915;-69
2021/12/28 02:58:37;;;;;;;;;;;-5.20;99.90;;;;;;5068298;28;19913;-67
2021/12/28 03:01:06;;;;;;;;;;;-5.20;99.90;;;;;;5072003;28;19904;-69
2021/12/28 03:03:32;;;;;;;;;;;-5.20;99.90;;;;;;5054012;28;19999;-68
2021/12/28 03:05:59;;;;;;;;;;;-5.20;99.90;;;;;;5049812;28;19916;-69
2021/12/28 03:08:26;;;;;;;;;;;-5.20;99.90;;;;;;5065189;28;20379;-68
2021/12/28 03:10:52;;;;;;;;;;;-5.20;99.90;;;;;;5053760;28;19961;-69
2021/12/28 03:13:21;;;;;;;;;;;-5.20;99.90;;;;;;5071842;28;20340;-69
2021/12/28 03:15:46;;;;;;;;;;;-5.20;99.90;;;;;;5052552;28;19947;-69
2021/12/28 03:18:12;;;;;;;;;;;-5.10;99.90;;;;;;5052053;28;19962;-68
2021/12/28 03:20:37;;;;;;;;;;;-5.10;99.90;;;;;;5071743;28;19909;-70
2021/12/28 03:23:03;;;;;;;;;;;-5.20;99.90;;;;;;5070189;28;20384;-70
2021/12/28 03:25:29;;;;;;;;;;;-5.20;99.90;;;;;;5051483;28;19957;-69
2021/12/28 03:27:54;;;;;;;;;;;-5.20;99.90;;;;;;5051667;28;19948;-69
2021/12/28 03:30:20;;;;;;;;;;;-5.20;99.90;;;;;;5071257;28;19927;-69
2021/12/28 03:32:46;;;;;;;;;;;-4.90;99.90;;;;;;5071855;28;19912;-69
2021/12/28 03:35:12;;;;;;;;;;;-5.20;99.90;;;;;;5051725;28;19905;-69
2021/12/28 03:37:38;;;;;;;;;;;-5.20;99.90;;;;;;5054528;28;19908;-69
2021/12/28 03:40:06;;;;;;;;;;;-5.20;99.90;;;;;;5070866;28;19908;-68
2021/12/28 03:42:31;;;;;;;;;;;-5.20;99.90;;;;;;5053598;28;19950;-69
2021/12/28 03:44:57;;;;;;;;;;;-5.20;99.90;;;;;;5071446;28;20352;-70
2021/12/28 03:47:22;;;;;;;;;;;-5.20;99.90;;;;;;5060095;28;19918;-69
2021/12/28 03:49:48;;;;;;;;;;;-5.20;99.90;;;;;;5071165;28;19923;-69
2021/12/28 03:52:13;;;;;;;;;;;-5.20;99.90;;;;;;5053565;28;20336;-69
2021/12/28 03:54:39;;;;;;;;;;;-5.10;99.90;;;;;;5071476;28;19956;-69
2021/12/28 03:57:05;;;;;;;;;;;-5.10;99.90;;;;;;5069695;28;19909;-71
2021/12/28 03:59:30;;;;;;;;;;;-5.10;99.90;;;;;;5069153;28;19916;-69
2021/12/28 04:01:56;;;;;;;;;;;-5.10;99.90;;;;;;5053246;28;19908;-70
2021/12/28 04:04:22;;;;;;;;;;;-5.20;99.90;;;;;;5070634;28;19913;-69
2021/12/28 04:06:48;;;;;;;;;;;-5.20;99.90;;;;;;5066956;28;19908;-69
2021/12/28 04:09:20;;;;;;;;;;;-5.10;99.90;;;;;;5063478;28;20434;-69
2021/12/28 04:11:46;;;;;;;;;;;-5.20;99.90;;;;;;5071063;28;19908;-69
2021/12/28 04:14:11;;;;;;;;;;;-5.20;99.90;;;;;;5070775;28;19920;-70
2021/12/28 04:16:37;;;;;;;;;;;-5.20;99.90;;;;;;5069450;28;19947;-69
2021/12/28 04:19:04;;;;;;;;;;;-5.10;99.90;;;;;;5050597;28;20450;-71
2021/12/28 04:21:30;;;;;;;;;;;-5.30;99.90;;;;;;5070720;28;19908;-67
2021/12/28 04:23:56;;;;;;;;;;;-5.20;99.90;;;;;;5070786;28;19959;-68
2021/12/28 04:26:22;;;;;;;;;;;-5.20;99.90;;;;;;5052611;28;19939;-69
2021/12/28 04:28:47;;;;;;;;;;;-5.40;99.90;;;;;;5060127;28;19919;-68
2021/12/28 04:31:13;;;;;;;;;;;-5.40;99.90;;;;;;5070397;28;20112;-69
2021/12/28 04:33:39;;;;;;;;;;;-5.40;99.90;;;;;;5070499;28;20267;-68
2021/12/28 04:36:06;;;;;;;;;;;-5.40;99.90;;;;;;5070240;28;20007;-69
2021/12/28 04:38:31;;;;;;;;;;;-5.40;99.90;;;;;;5051019;28;20007;-70
2021/12/28 04:40:57;;;;;;;;;;;-5.40;99.90;;;;;;5070360;28;20034;-68
2021/12/28 04:43:23;;;;;;;;;;;-5.40;99.90;;;;;;5070432;28;19935;-69
2021/12/28 04:45:49;;;;;;;;;;;-5.50;99.90;;;;;;5070341;28;19915;-69
2021/12/28 04:48:14;;;;;;;;;;;-5.50;99.90;;;;;;5060417;28;19913;-68
2021/12/28 04:50:42;;;;;;;;;;;-5.50;99.90;;;;;;5070288;28;19927;-69
2021/12/28 04:53:10;;;;;;;;;;;-5.50;99.90;;;;;;5051801;28;19938;-70
2021/12/28 04:55:37;;;;;;;;;;;-5.50;99.90;;;;;;5070749;28;20252;-69
2021/12/28 04:58:03;;;;;;;;;;;-5.50;99.90;;;;;;5069085;28;19917;-69
2021/12/28 05:00:29;;;;;;;;;;;-5.60;99.90;;;;;;5068711;28;20413;-70
2021/12/28 05:02:56;;;;;;;;;;;-5.60;99.90;;;;;;5070468;28;19968;-69
2021/12/28 05:05:21;;;;;;;;;;;-5.70;99.90;;;;;;5070168;28;19905;-69
2021/12/28 05:07:47;;;;;;;;;;;-5.70;99.90;;;;;;5065261;28;19995;-69
2021/12/28 05:10:12;;;;;;;;;;;-5.70;99.90;;;;;;5067515;28;20019;-67
2021/12/28 05:12:38;;;;;;;;;;;-5.70;99.90;;;;;;5070220;28;19908;-68
2021/12/28 05:15:05;;;;;;;;;;;-5.70;99.90;;;;;;5070335;28;19904;-69
2021/12/28 05:17:31;;;;;;;;;;;-5.60;99.90;;;;;;5068893;28;19904;-69
2021/12/28 05:19:56;;;;;;;;;;;-5.60;99.90;;;;;;5065809;28;19920;-70
2021/12/28 05:22:22;;;;;;;;;;;-5.60;99.90;;;;;;5070076;28;20337;-70
2021/12/28 05:24:48;;;;;;;;;;;-5.60;99.90;;;;;;5070257;28;19912;-68
2021/12/28 05:27:14;;;;;;;;;;;-5.60;99.90;;;;;;5069972;28;19951;-69
2021/12/28 05:29:39;;;;;;;;;;;-5.60;99.90;;;;;;5064726;28;19912;-70
2021/12/28 05:32:05;;;;;;;;;;;-5.60;99.90;;;;;;5054194;28;19915;-70
2021/12/28 05:34:31;;;;;;;;;;;-5.60;99.90;;;;;;5073876;28;19947;-70
2021/12/28 05:36:56;;;;;;;;;;;-5.70;99.90;;;;;;5073600;28;19908;-69
2021/12/28 05:39:22;;;;;;;;;;;-5.70;99.90;;;;;;5069774;28;19923;-69
2021/12/28 05:41:48;;;;;;;;;;;-5.60;99.90;;;;;;5073291;28;19916;-68
2021/12/28 05:44:15;;;;;;;;;;;-5.70;99.90;;;;;;5073772;28;19955;-69
2021/12/28 05:46:41;;;;;;;;;;;-5.80;99.90;;;;;;5055709;28;20003;-69
2021/12/28 05:49:06;;;;;;;;;;;-5.70;99.90;;;;;;5069989;28;20394;-70
2021/12/28 05:51:32;;;;;;;;;;;-5.80;99.90;;;;;;5053877;28;19952;-68
2021/12/28 05:53:57;;;;;;;;;;;-5.80;99.90;;;;;;5062683;28;19919;-68
2021/12/28 05:56:23;;;;;;;;;;;-5.80;99.90;;;;;;5073678;28;19904;-69
2021/12/28 05:58:48;;;;;;;;;;;-5.80;99.90;;;;;;5072404;28;20368;-68
2021/12/28 06:01:14;;;;;;;;;;;-5.90;99.90;;;;;;5071288;28;19908;-70
2021/12/28 06:03:39;;;;;;;;;;;-5.90;99.90;;;;;;5073161;28;19913;-70
2021/12/28 06:06:05;;;;;;;;;;;-5.90;99.90;;;;;;5055099;28;19939;-69
2021/12/28 06:08:31;;;;;;;;;;;-5.90;99.90;;;;;;5053829;28;19916;-70
2021/12/28 06:10:57;;;;;;;;;;;-5.90;99.90;;;;;;5070656;28;20620;-69
2021/12/28 06:13:23;;;;;;;;;;;-5.80;99.90;;;;;;5054628;28;19966;-69
2021/12/28 06:15:49;;;;;;;;;;;-5.90;99.90;;;;;;5073045;28;19908;-69
2021/12/28 06:18:14;;;;;;;;;;;-5.80;99.90;;;;;;5072247;28;19912;-71
2021/12/28 06:20:40;;;;;;;;;;;-5.80;99.90;;;;;;5062071;28;19961;-68
2021/12/28 06:23:06;;;;;;;;;;;-5.80;99.90;;;;;;5072743;28;20038;-68
2021/12/28 06:25:33;;;;;;;;;;;-5.80;99.90;;;;;;5072904;28;19969;-68
2021/12/28 06:27:58;;;;;;;;;;;-5.80;99.90;;;;;;5072504;28;19916;-69
2021/12/28 06:30:24;;;;;;;;;;;-5.80;99.90;;;;;;5052391;28;19913;-70
2021/12/28 06:32:50;;;;;;;;;;;-5.80;99.90;;;;;;5054830;28;19947;-68
2021/12/28 06:35:15;;;;;;;;;;;-5.80;99.90;;;;;;5072426;28;19927;-70
2021/12/28 06:37:41;;;;;;;;;;;-5.80;99.90;;;;;;5072291;28;19910;-68
2021/12/28 06:40:07;;;;;;;;;;;-5.80;99.90;;;;;;5052190;28;20236;-69
2021/12/28 06:42:32;;;;;;;;;;;-5.80;99.90;;;;;;5037502;28;20332;-69
2021/12/28 06:44:59;;;;;;;;;;;-5.70;99.90;;;;;;5072429;28;19927;-70
2021/12/28 06:47:25;;;;;;;;;;;-5.70;99.90;;;;;;5054663;28;20283;-69
2021/12/28 06:49:50;;;;;;;;;;;-5.70;99.90;;;;;;5061520;28;19913;-70
2021/12/28 06:52:16;;;;;;;;;;;-5.70;99.90;;;;;;5071949;28;19912;-69
2021/12/28 06:54:44;;;;;;;;;;;-5.70;99.90;;;;;;5072363;28;19962;-69
2021/12/28 06:57:10;;;;;;;;;;;-5.60;99.90;;;;;;5072374;28;19913;-69
2021/12/28 06:59:37;;;;;;;;;;;-5.60;99.90;;;;;;5049759;28;19912;-69
2021/12/28 07:02:04;;;;;;;;;;;-5.50;99.90;;;;;;5068562;28;19918;-70
2021/12/28 07:04:30;;;;;;;;;;;-5.60;99.90;;;;;;5071979;28;20271;-69
2021/12/28 07:06:55;;;;;;;;;;;-5.60;99.90;;;;;;5054764;28;19999;-69
2021/12/28 07:09:21;;;;;;;;;;;-5.60;99.90;;;;;;5067592;28;20020;-69
2021/12/28 07:11:46;;;;;;;;;;;-5.50;99.90;;;;;;5051808;28;19970;-69
2021/12/28 07:14:12;;;;;;;;;;;-5.60;99.90;;;;;;5063130;28;20280;-70
2021/12/28 07:16:38;;;;;;;;;;;-5.70;99.90;;;;;;5071569;28;19912;-70
2021/12/28 07:19:09;;;;;;;;;;;-5.70;99.90;;;;;;5071535;28;19994;-69
2021/12/28 07:21:35;;;;;;;;;;;-5.70;99.90;;;;;;5062220;28;20360;-68
2021/12/28 07:24:01;;;;;;;;;;;-5.60;99.90;;;;;;5071713;28;20340;-69
2021/12/28 07:26:26;;;;;;;;;;;-5.60;99.90;;;;;;5065938;28;19920;-69
2021/12/28 07:28:53;;;;;;;;;;;-5.60;99.90;;;;;;5059251;28;19961;-70
2021/12/28 07:31:19;;;;;;;;;;;-5.60;99.90;;;;;;5060224;28;20031;-69
2021/12/28 07:33:44;;;;;;;;;;;-5.60;99.90;;;;;;5071333;28;20276;-69
2021/12/28 07:36:10;;;;;;;;;;;-5.70;99.90;;;;;;5071545;28;20287;-70
2021/12/28 07:38:35;;;;;;;;;;;-5.60;99.90;;;;;;5065057;28;19909;-69
2021/12/28 07:41:01;;;;;;;;;;;-5.60;99.90;;;;;;5051020;28;20256;-68
2021/12/28 07:43:27;;;;;;;;;;;-5.60;99.90;;;;;;5050835;28;20056;-73
2021/12/28 07:45:52;;;;;;;;;;;-5.30;99.90;;;;;;5070407;28;19920;-74
2021/12/28 07:48:18;;;;;;;;;;;-5.00;99.90;;;;;;5046435;28;19912;-75
2021/12/28 07:50:43;;;;;;;;;;;-4.90;99.90;;;;;;5070170;28;19921;-73
2021/12/28 07:53:09;;;;;;;;;;;-4.80;99.90;;;;;;5051458;28;20352;-72
2021/12/28 07:55:35;;;;;;;;;;;-4.80;99.90;;;;;;5053197;28;19919;-73
2021/12/28 07:58:00;;;;;;;;;;;-4.90;99.90;;;;;;5064630;28;19912;-70
2021/12/28 08:00:26;;;;;;;;;;;-4.90;99.90;;;;;;5069717;28;19978;-72
2021/12/28 08:02:52;;;;;;;;;;;-4.80;99.90;;;;;;5069054;28;19995;-72
2021/12/28 08:05:17;;;;;;;;;;;-4.70;99.90;;;;;;5069650;28;19959;-71
2021/12/28 08:07:43;;;;;;;;;;;-4.40;99.90;;;;;;5068816;28;19912;-71
2021/12/28 08:10:10;;;;;;;;;;;-4.40;99.90;;;;;;5050644;28;20324;-71
2021/12/28 08:12:35;;;;;;;;;;;-4.30;99.90;;;;;;5070719;28;19916;-72
2021/12/28 08:15:03;;;;;;;;;;;-4.30;99.90;;;;;;5069071;28;19990;-71
2021/12/28 08:17:29;;;;;;;;;;;-4.30;99.90;;;;;;5050689;28;19909;-71
2021/12/28 08:19:54;;;;;;;;;;;-4.30;99.90;;;;;;5060795;28;19981;-72
2021/12/28 08:22:20;;;;;;;;;;;-4.30;99.90;;;;;;5064801;28;19913;-72
2021/12/28 08:24:45;;;;;;;;;;;-4.30;99.90;;;;;;5047500;28;19913;-71
2021/12/28 08:27:11;;;;;;;;;;;-4.20;99.90;;;;;;5064448;28;19912;-71
2021/12/28 08:29:37;;;;;;;;;;;-4.40;99.90;;;;;;5065876;28;19912;-71
2021/12/28 08:32:02;;;;;;;;;;;-4.50;99.90;;;;;;5045554;28;19960;-72
2021/12/28 08:34:28;;;;;;;;;;;-4.60;99.90;;;;;;5047715;28;19916;-71
2021/12/28 08:36:54;;;;;;;;;;;-4.50;99.90;;;;;;5056847;28;19916;-69
2021/12/28 08:39:19;;;;;;;;;;;-4.60;99.90;;;;;;5056784;28;19977;-70
2021/12/28 08:41:45;;;;;;;;;;;-4.60;99.90;;;;;;5060825;28;19920;-71
2021/12/28 08:44:10;;;;;;;;;;;-4.60;99.90;;;;;;5063649;28;20463;-70
2021/12/28 08:46:39;;;;;;;;;;;-4.60;99.90;;;;;;5067688;28;19969;-70
2021/12/28 08:49:05;;;;;;;;;;;-4.40;99.90;;;;;;5065335;28;19961;-66
2021/12/28 08:51:31;;;;;;;;;;;-4.40;99.90;;;;;;5065400;28;19931;-71
2021/12/28 08:53:57;;;;;;;;;;;-4.40;99.90;;;;;;5066373;28;19916;-68
2021/12/28 08:56:23;;;;;;;;;;;-4.60;99.90;;;;;;5049993;28;20461;-68
2021/12/28 08:58:50;;;;;;;;;;;-4.50;99.90;;;;;;5045351;28;19915;-69
2021/12/28 09:01:16;;;;;;;;;;;-4.40;99.90;;;;;;5062990;28;20245;-71
2021/12/28 09:03:41;;;;;;;;;;;-4.30;99.90;;;;;;5062264;28;19978;-70
2021/12/28 09:06:07;;;;;;;;;;;-4.30;99.90;;;;;;5060359;28;19917;-70
2021/12/28 09:08:33;;;;;;;;;;;-4.30;99.90;;;;;;5063514;28;20268;-69
2021/12/28 09:10:58;;;;;;;;;;;-4.50;99.90;;;;;;5066742;28;20015;-69
2021/12/28 09:13:24;;;;;;;;;;;-4.50;99.90;;;;;;5063844;28;19912;-70
2021/12/28 09:15:50;;;;;;;;;;;-4.60;99.90;;;;;;5059026;28;20031;-70
2021/12/28 09:18:16;;;;;;;;;;;-4.60;99.90;;;;;;5060229;28;19920;-70
2021/12/28 09:20:42;;;;;;;;;;;-4.60;99.90;;;;;;5060845;28;19912;-70
2021/12/28 09:23:08;;;;;;;;;;;-4.60;99.90;;;;;;5068505;28;19974;-70
2021/12/28 09:25:33;;;;;;;;;;;-4.60;99.90;;;;;;5072174;28;20348;-70
2021/12/28 09:27:59;;;;;;;;;;;-4.70;99.90;;;;;;5047367;28;19912;-69
2021/12/28 09:30:25;;;;;;;;;;;-4.70;99.90;;;;;;5068909;28;20336;-69
2021/12/28 09:32:51;;;;;;;;;;;-4.80;99.90;;;;;;5062121;28;19919;-68
2021/12/28 09:35:17;;;;;;;;;;;-3.00;99.90;;;;;;5071615;28;19926;-68
2021/12/28 09:37:42;;;;;;;;;;;-4.70;99.90;;;;;;5066618;28;19912;-70
2021/12/28 09:40:10;;;;;;;;;;;-4.70;99.90;;;;;;5066792;28;20699;-68
2021/12/28 09:42:36;;;;;;;;;;;-4.70;99.90;;;;;;5066329;28;19916;-70
2021/12/28 09:45:02;;;;;;;;;;;-4.70;99.90;;;;;;5046059;28;19999;-69
2021/12/28 09:47:28;;;;;;;;;;;-4.60;99.90;;;;;;5061165;28;19920;-70
2021/12/28 09:49:53;;;;;;;;;;;-4.60;99.90;;;;;;5046422;28;19916;-71
2021/12/28 09:52:19;;;;;;;;;;;-4.60;99.90;;;;;;5047868;28;20007;-70
2021/12/28 09:54:45;;;;;;;;;;;-4.60;99.90;;;;;;5065143;28;19923;-68
2021/12/28 09:57:18;;;;;;;;;;;-4.50;99.90;;;;;;5065232;28;19912;-71
2021/12/28 09:59:44;;;;;;;;;;;-4.50;99.90;;;;;;5064837;28;19912;-72
2021/12/28 10:02:10;;;;;;;;;;;-4.30;99.90;;;;;;5046442;28;19932;-71
2021/12/28 10:04:38;;;;;;;;;;;-4.30;99.90;;;;;;5063141;28;19912;-70
2021/12/28 10:07:23;;;;;;;;;;;-4.30;99.90;;;;;;5068569;28;19920;-69
2021/12/28 10:09:49;;;;;;;;;;;-4.30;99.90;;;;;;5067878;28;19923;-69
2021/12/28 10:12:28;;;;;;;;;;;-4.30;99.90;;;;;;5065551;28;19973;-69
2021/12/28 10:14:55;;;;;;;;;;;-4.40;99.90;;;;;;5064080;28;20387;-69
2021/12/28 10:17:25;;;;;;;;;;;-4.50;99.90;;;;;;5066056;28;19966;-69
2021/12/28 10:19:51;;;;;;;;;;;-4.50;99.90;;;;;;5070877;28;20285;-69
2021/12/28 10:22:20;;;;;;;;;;;-4.60;99.90;;;;;;5071356;28;20023;-69
2021/12/28 10:24:46;;;;;;;;;;;-4.80;99.90;;;;;;5044305;28;19966;-70
2021/12/28 10:27:16;;;;;;;;;;;-4.70;99.90;;;;;;5067900;28;20052;-69
2021/12/28 10:29:42;;;;;;;;;;;-4.70;99.90;;;;;;5069139;28;19912;-69
2021/12/28 10:32:17;;;;;;;;;;;-4.60;99.90;;;;;;5061176;28;19923;-71
2021/12/28 10:34:46;;;;;;;;;;;-4.60;99.90;;;;;;5064085;28;19916;-69
2021/12/28 10:37:16;;;;;;;;;;;-4.50;99.90;;;;;;5045333;28;19917;-69
2021/12/28 10:39:46;;;;;;;;;;;-4.50;99.90;;;;;;5065602;28;19916;-69
2021/12/28 10:42:31;;;;;;;;;;;-4.50;99.90;;;;;;5066289;28;19940;-70
2021/12/28 10:44:57;;;;;;;;;;;-3.90;99.90;;;;;;5067403;28;19912;-69
2021/12/28 10:47:23;;;;;;;;;;;-4.20;99.90;;;;;;5067191;28;19916;-70
2021/12/28 10:49:49;;;;;;;;;;;-4.20;99.90;;;;;;5044122;28;19918;-69
2021/12/28 10:52:22;;;;;;;;;;;-4.20;99.90;;;;;;5064386;28;19947;-70
2021/12/28 10:54:48;;;;;;;;;;;-4.30;99.90;;;;;;5069457;28;20390;-69
2021/12/28 10:57:13;;;;;;;;;;;-4.40;99.90;;;;;;5066878;28;19920;-68
2021/12/28 10:59:39;;;;;;;;;;;-4.40;99.90;;;;;;5063496;28;19916;-70
2021/12/28 11:02:05;;;;;;;;;;;-4.40;99.90;;;;;;5046774;28;20374;-69
2021/12/28 11:04:32;;;;;;;;;;;-4.40;99.90;;;;;;5062322;28;19916;-70
2021/12/28 11:06:57;;;;;;;;;;;-4.30;99.90;;;;;;5048597;28;19912;-69
2021/12/28 11:09:24;;;;;;;;;;;-4.40;99.90;;;;;;5065302;28;20347;-70
2021/12/28 11:11:54;;;;;;;;;;;-4.50;99.90;;;;;;5066296;28;19924;-70
2021/12/28 11:14:21;;;;;;;;;;;-4.50;99.90;;;;;;5064267;28;20436;-69
2021/12/28 11:16:50;;;;;;;;;;;-4.50;99.90;;;;;;5064930;28;20627;-70
2021/12/28 11:19:22;;;;;;;;;;;-4.50;99.90;;;;;;5053746;28;19912;-69
2021/12/28 11:21:55;;;;;;;;;;;-4.50;99.90;;;;;;5065904;28;20729;-69
2021/12/28 11:24:21;;;;;;;;;;;-4.60;99.90;;;;;;5073774;28;19947;-70
2021/12/28 11:26:47;;;;;;;;;;;-4.70;99.90;;;;;;5062942;28;20351;-70
2021/12/28 11:29:15;;;;;;;;;;;-4.70;99.90;;;;;;5064081;28;20280;-70
2021/12/28 11:31:45;;;;;;;;;;;-4.70;99.90;;;;;;5047913;28;19920;-70
2021/12/28 11:34:12;;;;;;;;;;;-4.70;99.90;;;;;;5061104;28;19912;-69
2021/12/28 11:36:40;;;;;;;;;;;-4.60;99.90;;;;;;5070895;28;19965;-69
2021/12/28 11:39:08;;;;;;;;;;;-4.60;99.90;;;;;;5065007;28;19995;-71
2021/12/28 11:41:34;;;;;;;;;;;-4.60;99.90;;;;;;5044644;28;19924;-69
2021/12/28 11:43:59;;;;;;;;;;;-4.60;99.90;;;;;;5068477;28;19918;-70
2021/12/28 11:46:26;;;;;;;;;;;-4.50;99.90;;;;;;5068010;28;19917;-70
2021/12/28 11:48:52;;;;;;;;;;;-4.40;99.90;;;;;;5066955;28;19940;-70
2021/12/28 11:51:20;;;;;;;;;;;-4.50;99.90;;;;;;5046690;28;19920;-70
2021/12/28 11:53:47;;;;;;;;;;;-4.50;99.90;;;;;;5061868;28;19916;-69
2021/12/28 11:56:15;;;;;;;;;;;-4.50;99.90;;;;;;5051445;28;19916;-70
2021/12/28 11:58:47;;;;;;;;;;;-4.30;99.90;;;;;;5063851;28;19976;-68
2021/12/28 12:01:42;;;;;;;;;;;-3.10;99.90;;;;;;5060269;28;19935;-68
2021/12/28 12:04:26;;;;;;;;;;;-4.30;99.90;;;;;;5048758;28;19919;-70
2021/12/28 12:06:58;;;;;;;;;;;-4.30;99.90;;;;;;5064561;28;20003;-69
2021/12/28 12:09:25;;;;;;;;;;;-4.30;99.90;;;;;;5068312;28;19986;-69
2021/12/28 12:12:12;;;;;;;;;;;-4.40;99.90;;;;;;5066468;28;19917;-71
2021/12/28 12:14:52;;;;;;;;;;;-4.60;99.90;;;;;;5063149;28;20271;-69
2021/12/28 12:17:24;;;;;;;;;;;-4.50;99.90;;;;;;5062574;28;19946;-71
2021/12/28 12:19:50;;;;;;;;;;;-4.50;99.90;;;;;;5063122;28;19912;-70
2021/12/28 12:22:27;;;;;;;;;;;-4.40;99.90;;;;;;5058046;28;19990;-70
2021/12/28 12:24:53;;;;;;;;;;;-4.50;99.90;;;;;;5061698;28;19970;-69
2021/12/28 12:27:37;;;;;;;;;;;-4.40;99.90;;;;;;5056948;28;19928;-69
2021/12/28 12:30:03;;;;;;;;;;;-4.30;99.90;;;;;;5065162;28;20040;-70
2021/12/28 12:32:47;;;;;;;;;;;-4.30;99.90;;;;;;5066774;28;19956;-70
2021/12/28 12:35:32;;;;;;;;;;;-4.20;99.90;;;;;;5067730;28;20347;-69
2021/12/28 12:37:58;;;;;;;;;;;-4.30;99.90;;;;;;5062835;28;19916;-71
2021/12/28 12:40:42;;;;;;;;;;;-4.40;99.90;;;;;;5063890;28;19967;-68
2021/12/28 12:43:08;;;;;;;;;;;-4.40;99.90;;;;;;5067010;28;20007;-69
2021/12/28 12:45:52;;;;;;;;;;;-3.20;99.90;;;;;;5068581;28;19927;-69
2021/12/28 12:48:36;;;;;;;;;;;-4.40;99.90;;;;;;5045248;28;20322;-69
2021/12/28 12:51:29;;;;;;;;;;;-4.40;99.90;;;;;;5065560;28;19920;-69
2021/12/28 12:54:08;;;;;;;;;;;-4.40;99.90;;;;;;5066133;28;20233;-69
2021/12/28 12:56:37;;;;;;;;;;;-4.60;99.90;;;;;;5060958;28;19916;-69
2021/12/28 12:59:04;;;;;;;;;;;-4.70;99.90;;;;;;5063838;28;19965;-69
2021/12/28 13:01:52;;;;;;;;;;;-4.70;99.90;;;;;;5066091;28;19928;-69
2021/12/28 13:04:24;;;;;;;;;;;-4.60;99.90;;;;;;5065849;28;19916;-70
2021/12/28 13:07:01;;;;;;;;;;;-4.70;99.90;;;;;;5065022;28;19920;-70
2021/12/28 13:09:27;;;;;;;;;;;-4.80;99.90;;;;;;5060530;28;19917;-69
2021/12/28 13:11:52;;;;;;;;;;;-4.80;99.90;;;;;;5066841;28;21214;-70
2021/12/28 13:14:18;;;;;;;;;;;-4.80;99.90;;;;;;5065523;28;20066;-70
2021/12/28 13:17:01;;;;;;;;;;;-4.80;99.90;;;;;;5066506;28;19913;-70
2021/12/28 13:19:27;;;;;;;;;;;-4.80;99.90;;;;;;5062462;28;20340;-69
2021/12/28 13:22:00;;;;;;;;;;;-4.90;99.90;;;;;;5062518;28;19920;-70
2021/12/28 13:24:27;;;;;;;;;;;-4.80;99.90;;;;;;5050881;28;20445;-70
2021/12/28 13:26:54;;;;;;;;;;;-4.70;99.90;;;;;;5040951;28;19923;-69
2021/12/28 13:29:27;;;;;;;;;;;-4.70;99.90;;;;;;5046839;28;19921;-69
2021/12/28 13:31:54;;;;;;;;;;;-4.60;99.90;;;;;;5066002;28;19966;-70
2021/12/28 13:34:20;;;;;;;;;;;-4.50;99.90;;;;;;5064293;28;20668;-69
2021/12/28 13:36:52;;;;;;;;;;;-4.50;99.90;;;;;;5061570;28;19951;-69
2021/12/28 13:39:18;;;;;;;;;;;-4.60;99.90;;;;;;5057268;28;20360;-69
2021/12/28 13:41:47;;;;;;;;;;;-4.60;99.90;;;;;;5057457;28;19973;-69
2021/12/28 13:44:12;;;;;;;;;;;-4.70;99.90;;;;;;5062292;28;19950;-69
2021/12/28 13:46:38;;;;;;;;;;;-4.70;99.90;;;;;;5067487;28;20299;-68
2021/12/28 13:49:04;;;;;;;;;;;-4.60;99.90;;;;;;5066401;28;19986;-70
2021/12/28 13:51:30;;;;;;;;;;;-4.60;99.90;;;;;;5059736;28;20013;-69
2021/12/28 13:53:58;;;;;;;;;;;-4.60;99.90;;;;;;5065215;28;19948;-70
2021/12/28 13:56:34;;;;;;;;;;;-4.60;99.90;;;;;;5067192;28;19996;-68
2021/12/28 13:59:00;;;;;;;;;;;-4.60;99.90;;;;;;5067913;28;19915;-69
2021/12/28 14:01:27;;;;;;;;;;;-4.60;99.90;;;;;;5073601;28;19920;-69
2021/12/28 14:04:04;;;;;;;;;;;-4.60;99.90;;;;;;5050015;28;19912;-69
2021/12/28 14:06:31;;;;;;;;;;;-4.60;99.90;;;;;;5068510;28;20368;-68
2021/12/28 14:08:57;;;;;;;;;;;-4.70;99.90;;;;;;5069666;28;20368;-68
2021/12/28 14:11:38;;;;;;;;;;;-4.80;99.90;;;;;;5070165;28;19969;-68
2021/12/28 14:14:14;;;;;;;;;;;-4.70;99.90;;;;;;5070191;28;20003;-68
2021/12/28 14:16:56;;;;;;;;;;;-4.70;99.90;;;;;;5064857;28;20267;-68
2021/12/28 14:19:26;;;;;;;;;;;-4.70;99.90;;;;;;5065464;28;19965;-69